• Join FlightAware (Why Join?)
  • Login
  • US Flag 
07:17AM EST


 

Airport Tracker/Info


-or-


 

Live Flight TrackerFlight Track Log ✈ AAR8739 ✈ 23-Mar-2014 ✈ RKSS / GMP - RKJY / RSU

Flight Track Log - Related Links

Times and Time Zones

All times are in EDT time to prevent confusion due to time zone crossing. See the AAR8739 flight status page for this flight to view local times or setup timezone preferences in your user account.

Time Position Orientation Groundspeed Altitude Reporting Facility
EDT Latitude Longitude Course Direction KTS MPH feet Rate Location/Type
10:38PM 37.5310 126.8280 134° Southeast 164 189 2,600  Level FlightAware ADS-B (SBBH / PLU)
10:38PM 37.5233 126.8378 135° Southeast 175 201 3,100 2,100 Climbing FlightAware ADS-B (SBBH / PLU)
10:38PM 37.5123 126.8513 135° Southeast 197 227 3,700 1,860 Climbing FlightAware ADS-B (SBBH / PLU)
10:38PM 37.5020 126.8631 143° Southeast 222 255 4,100 1,800 Climbing FlightAware ADS-B (SBBH / PLU)
10:38PM 37.4969 126.8668 153° Southeast 227 261 4,300 2,400 Climbing FlightAware ADS-B (SBBH / PLU)
10:38PM 37.4921 126.8693 159° South 232 267 4,500 2,400 Climbing FlightAware ADS-B (SBBH / PLU)
10:39PM 37.4767 126.8757 162° South 253 291 5,100 1,980 Climbing FlightAware ADS-B (SBBH / PLU)
10:39PM 37.4577 126.8831 163° South 276 318 5,500 1,440 Climbing FlightAware ADS-B (SBBH / PLU)
10:39PM 37.4456 126.8859 173° South 278 320 5,700 1,260 Climbing FlightAware ADS-B (SBBH / PLU)
10:39PM 37.4399 126.8860 181° South 278 320 5,800 1,500 Climbing FlightAware ADS-B (SBBH / PLU)
10:39PM 37.4196 126.8846 184° South 280 322 6,200 1,320 Climbing FlightAware ADS-B (SBBH / PLU)
10:40PM 37.4008 126.8831 185° South 282 325 6,500 660 Climbing FlightAware ADS-B (SBBH / PLU)
10:40PM 37.3756 126.8809 185° South 280 322 6,600 840 Climbing FlightAware ADS-B (SBBH / PLU)
10:40PM 37.3561 126.8792 185° South 283 326 7,000 2,520 Climbing FlightAware ADS-B (SBBH / PLU)
10:41PM 37.3409 126.8779 185° South 282 325 7,800 3,840 Climbing FlightAware ADS-B (SBBH / PLU)
10:41PM 37.3161 126.8757 185° South 282 325 9,000 3,540 Climbing FlightAware ADS-B (SBBH / PLU)
10:41PM 37.2980 126.8742 185° South 281 323 9,700 2,400 Climbing FlightAware ADS-B (SBBH / PLU)
10:42PM 37.2475 126.8697 185° South 327 376 11,000 1,800 Climbing FlightAware ADS-B (SBBH / PLU)
10:42PM 37.1984 126.8655 184° South 363 418 11,700 2,280 Climbing FlightAware ADS-B (SBBH / PLU)
10:43PM 37.1558 126.8619 185° South 377 434 13,200 3,300 Climbing FlightAware ADS-B (SBBH / PLU)
10:45PM 37.0087 126.9111 165° South  Level Estimated
10:46PM 36.9312 126.9370 165° South  Level Estimated
10:47PM 36.8538 126.9628 165° South  Level Estimated
10:48PM 36.7763 126.9885 165° South  Level Estimated
10:49PM 36.6989 127.0142 165° South  Level Estimated
10:50PM 36.6214 127.0398 165° South  Level Estimated
10:51PM 36.5440 127.0654 165° South  Level Estimated
10:52PM 36.4665 127.0909 165° South  Level Estimated
10:53PM 36.3890 127.1164 165° South  Level Estimated
10:54PM 36.3116 127.1419 165° South  Level Estimated
10:55PM 36.2341 127.1672 165° South  Level Estimated
10:56PM 36.1566 127.1926 165° South  Level Estimated
10:57PM 36.0791 127.2178 165° South  Level Estimated
10:58PM 36.0016 127.2431 165° South  Level Estimated
10:59PM 35.9241 127.2683 165° South  Level Estimated
11:00PM 35.8466 127.2934 165° South  Level Estimated
11:01PM 35.7691 127.3185 165° South  Level Estimated
11:02PM 35.6916 127.3435 165° South  Level Estimated
11:03PM 35.6141 127.3685 165° South  Level Estimated
11:04PM 35.5365 127.3934 165° South  Level Estimated
11:05PM 35.4590 127.4183 165° South  Level Estimated
11:06PM 35.3815 127.4432 165° South  Level Estimated
11:07PM 35.3039 127.4679 165° South  Level Estimated
11:08PM 35.2264 127.4927 165° South  Level Estimated
11:09PM 35.1488 127.5174 165° South  Level Estimated
11:10PM 35.0713 127.5421 165° South  Level Estimated
11:11PM 34.9937 127.5667 165° South  Level Estimated
11:12PM 34.9161 127.5912 165° South  Level Estimated
11:13PM 34.8398 127.6153 165° South  Level Estimated
11:14PM 34.8398 127.6153 North  Level Estimated
11:15PM 34.8398 127.6153 North  Level Estimated
11:16PM 34.8398 127.6153 North  Level Estimated
11:17PM 34.8398 127.6153 North  Level Estimated
11:18PM 34.8398 127.6153 North  Level Estimated
11:19PM 34.8398 127.6153 North  Level Estimated
11:20PM 34.8398 127.6153 North  Level Estimated
11:21PM 34.8398 127.6153 North  Level Estimated
11:22PM 34.8398 127.6153 North  Level Estimated
11:23PM 34.8398 127.6153 North  Level Estimated
11:24PM 34.8398 127.6153 North  Level Estimated
11:25PM 34.8398 127.6153 North  Level Estimated
11:26PM 34.8398 127.6153 North  Level Estimated
11:27PM 34.8398 127.6153 North  Level Estimated